Time;durP1;ratioP1;P1;durP2;ratioP2;P2;SDS_P1;SDS_P2;PMS_P1;PMS_P2;Temp;Humidity;BMP_temperature;BMP_pressure;BME280_temperature;BME280_humidity;BME280_pressure;Samples;Min_cycle;Max_cycle;Signal;HPM_P1;HPM_P2
2022/12/22 03:26:49;;;;;;;0.30;0.30;;;;;;;11.28;77.13;100305.75;5096179;28;20476;-83
2022/12/22 03:29:15;;;;;;;0.10;0.10;;;;;;;11.29;76.88;100306.59;5089173;28;20032;-83
2022/12/22 03:31:41;;;;;;;0.20;0.20;;;;;;;11.33;76.84;100301.16;5089111;28;20028;-83
2022/12/22 03:34:07;;;;;;;0.25;0.25;;;;;;;11.35;77.08;100303.75;5092703;28;20085;-83
2022/12/22 03:36:34;;;;;;;0.20;0.20;;;;;;;11.35;76.78;100294.94;5092481;28;20074;-83
2022/12/22 03:39:00;;;;;;;0.10;0.10;;;;;;;11.36;76.53;100286.06;5092634;28;20032;-83
2022/12/22 03:46:58;;;;;;;0.10;0.10;;;;;;;11.42;76.60;100288.53;5094109;28;20036;-83
2022/12/22 03:49:25;;;;;;;0.10;0.10;;;;;;;11.42;76.45;100285.88;5088692;28;20025;-83
2022/12/22 03:51:52;;;;;;;0.10;0.10;;;;;;;11.41;76.63;100278.84;5103857;28;20032;-82
2022/12/22 03:54:22;;;;;;;0.32;0.32;;;;;;;11.44;76.62;100276.06;5108416;28;20577;-81
2022/12/22 03:56:49;;;;;;;0.40;0.40;;;;;;;11.43;76.45;100275.22;5103922;28;20024;-83
2022/12/22 03:59:16;;;;;;;0.10;0.10;;;;;;;11.41;76.61;100284.13;5085883;28;20043;-82
2022/12/22 04:01:45;;;;;;;0.10;0.10;;;;;;;11.37;76.88;100291.31;5091868;28;20169;-83
2022/12/22 04:04:13;;;;;;;0.10;0.10;;;;;;;11.32;76.73;100295.91;5085996;28;20511;-83
2022/12/22 04:06:39;;;;;;;0.10;0.10;;;;;;;11.30;76.84;100308.34;5087028;28;20029;-83
2022/12/22 04:09:05;;;;;;;0.20;0.20;;;;;;;11.25;77.34;100305.84;5081218;28;20071;-83
2022/12/22 04:14:18;;;;;;;0.20;0.20;;;;;;;11.33;76.84;100302.97;5072728;28;20040;-83
2022/12/22 04:16:44;;;;;;;0.17;0.17;;;;;;;11.36;77.05;100302.00;5077060;28;20093;-83
2022/12/22 04:19:11;;;;;;;0.10;0.10;;;;;;;11.37;77.25;100311.69;5083936;28;20028;-82
2022/12/22 04:21:37;;;;;;;0.20;0.20;;;;;;;11.33;76.63;100306.47;5084918;28;20388;-83
2022/12/22 04:24:03;;;;;;;0.15;0.15;;;;;;;11.32;77.21;100303.88;5075286;28;20041;-83
2022/12/22 04:26:30;;;;;;;0.45;0.45;;;;;;;11.26;77.20;100307.56;5085764;28;20101;-83
2022/12/22 04:28:56;;;;;;;0.10;0.10;;;;;;;11.22;77.45;100311.25;5073974;28;20048;-83
2022/12/22 04:31:22;;;;;;;0.10;0.10;;;;;;;11.18;77.43;100304.31;5087169;28;20052;-82
2022/12/22 04:33:49;;;;;;;0.20;0.20;;;;;;;11.26;77.63;100319.97;5085288;28;20495;-83
2022/12/22 04:36:15;;;;;;;0.30;0.30;;;;;;;11.24;77.35;100317.38;5076575;28;20016;-83
2022/12/22 04:38:42;;;;;;;1.15;1.15;;;;;;;11.18;77.37;100314.91;5077885;28;20400;-82
2022/12/22 04:41:08;;;;;;;0.38;0.38;;;;;;;11.21;77.91;100317.47;5087506;28;20024;-83
2022/12/22 04:43:35;;;;;;;0.45;0.45;;;;;;;11.22;77.74;100316.53;5087297;28;20037;-83
2022/12/22 04:46:02;;;;;;;1.60;1.50;;;;;;;11.23;77.63;100315.63;5090525;28;20021;-83
2022/12/22 04:48:29;;;;;;;0.20;0.20;;;;;;;11.28;77.38;100319.00;5088356;28;20089;-82
2022/12/22 04:50:58;;;;;;;0.30;0.30;;;;;;;11.31;77.41;100323.34;5096871;28;20093;-83
2022/12/22 04:53:26;;;;;;;0.10;0.10;;;;;;;11.29;77.09;100323.41;5093744;28;20062;-83
2022/12/22 04:55:58;;;;;;;0.35;0.35;;;;;;;11.33;77.61;100310.91;5072352;28;20017;-83
2022/12/22 04:58:25;;;;;;;0.68;0.68;;;;;;;11.23;77.29;100315.63;5077556;28;20033;-83
2022/12/22 05:00:51;;;;;;;1.67;1.58;;;;;;;11.28;77.41;100316.34;5082003;28;20035;-83
2022/12/22 05:03:18;;;;;;;1.17;1.15;;;;;;;11.28;77.65;100321.66;5083579;28;20043;-83
2022/12/22 05:05:44;;;;;;;0.20;0.20;;;;;;;11.28;77.42;100326.97;5084507;28;20029;-83
2022/12/22 05:08:10;;;;;;;0.30;0.30;;;;;;;11.28;77.72;100326.97;5087984;28;20099;-83
2022/12/22 05:10:36;;;;;;;0.75;0.75;;;;;;;11.29;77.86;100334.00;5094929;28;20078;-83
2022/12/22 05:13:02;;;;;;;2.83;0.75;;;;;;;11.26;77.65;100334.09;5095187;28;20385;-83
2022/12/22 05:15:31;;;;;;;1.40;1.40;;;;;;;11.26;77.22;100338.53;5085164;28;20036;-83
2022/12/22 05:17:58;;;;;;;0.47;0.47;;;;;;;11.26;77.59;100336.75;5087370;28;20016;-83
2022/12/22 05:20:25;;;;;;;0.30;0.30;;;;;;;11.27;77.85;100343.78;5083445;28;20081;-83
2022/12/22 05:22:52;;;;;;;0.10;0.10;;;;;;;11.23;77.48;100341.31;5085868;28;20039;-83
2022/12/22 05:25:19;;;;;;;1.13;1.00;;;;;;;11.12;77.66;100357.53;5073852;28;20512;-83
2022/12/22 05:27:46;;;;;;;4.57;0.85;;;;;;;11.11;77.90;100361.09;5081465;28;20444;-83
2022/12/22 05:30:14;;;;;;;0.50;0.50;;;;;;;11.09;77.95;100347.00;5073753;28;20032;-82
2022/12/22 05:32:41;;;;;;;9.88;3.95;;;;;;;11.09;77.88;100360.25;5074544;28;20056;-82
2022/12/22 05:35:08;;;;;;;0.20;0.20;;;;;;;11.01;77.43;100373.75;5072783;28;20412;-82
2022/12/22 05:37:35;;;;;;;1.17;1.17;;;;;;;11.01;78.14;100363.13;5072705;28;20024;-82
2022/12/22 05:40:01;;;;;;;1.35;1.25;;;;;;;10.97;77.96;100372.09;5071879;28;20035;-82
2022/12/22 05:42:34;;;;;;;0.75;0.75;;;;;;;10.94;77.78;100375.72;5072480;28;20035;-82
2022/12/22 05:45:18;;;;;;;0.22;0.22;;;;;;;10.92;78.03;100385.47;5072816;28;20020;-82
2022/12/22 05:47:48;;;;;;;0.85;0.85;;;;;;;10.86;77.72;100382.16;5071632;28;20029;-82
2022/12/22 05:50:17;;;;;;;0.52;0.52;;;;;;;10.79;77.40;100376.13;5075555;28;20032;-83
2022/12/22 05:52:44;;;;;;;0.22;0.22;;;;;;;10.79;77.80;100363.78;5074123;28;20032;-83
2022/12/22 05:55:12;;;;;;;0.20;0.20;;;;;;;10.77;77.60;100368.25;5071469;28;20073;-83
2022/12/22 05:57:39;;;;;;;1.10;1.10;;;;;;;10.72;77.45;100366.66;5074215;28;20501;-83
2022/12/22 06:00:10;;;;;;;1.10;1.10;;;;;;;10.69;77.92;100375.53;5087155;28;20515;-82
2022/12/22 06:02:36;;;;;;;0.20;0.20;;;;;;;10.63;77.71;100373.94;5086127;28;20036;-83
2022/12/22 06:05:03;;;;;;;1.65;1.55;;;;;;;10.61;77.65;100373.09;5080513;28;20088;-84
2022/12/22 06:07:29;;;;;;;0.77;0.77;;;;;;;10.57;77.62;100365.31;5079042;28;20040;-83
2022/12/22 06:09:55;;;;;;;0.20;0.20;;;;;;;10.51;77.67;100374.28;5084012;28;20032;-83
2022/12/22 06:12:21;;;;;;;0.13;0.13;;;;;;;10.46;77.77;100381.47;5083591;28;20071;-83
2022/12/22 06:14:47;;;;;;;0.45;0.45;;;;;;;10.44;77.54;100381.53;5078275;28;20082;-83
2022/12/22 06:17:13;;;;;;;0.47;0.47;;;;;;;10.36;77.24;100384.34;5088672;28;20113;-84
2022/12/22 06:19:39;;;;;;;0.10;0.10;;;;;;;10.32;77.62;100393.25;5089106;28;20028;-83
2022/12/22 06:22:05;;;;;;;4.03;1.08;;;;;;;10.26;77.59;100398.72;5078449;28;20626;-83
2022/12/22 06:24:31;;;;;;;0.50;0.50;;;;;;;10.17;77.87;100407.78;5077335;28;20078;-83
2022/12/22 06:26:57;;;;;;;0.20;0.20;;;;;;;10.13;78.12;100419.34;5086858;28;20065;-83
2022/12/22 06:29:23;;;;;;;0.30;0.30;;;;;;;10.07;78.29;100423.91;5098363;28;20029;-83
2022/12/22 06:31:50;;;;;;;0.30;0.25;;;;;;;9.98;78.50;100431.19;5086587;28;20092;-83
2022/12/22 06:34:16;;;;;;;0.68;0.68;;;;;;;10.00;78.17;100429.34;5084971;28;20048;-84
2022/12/22 06:36:44;;;;;;;2.47;2.00;;;;;;;10.00;77.82;100423.19;5089183;28;20017;-83
2022/12/22 06:39:10;;;;;;;0.20;0.20;;;;;;;9.95;77.93;100428.59;5083721;28;20054;-83
2022/12/22 06:44:23;;;;;;;1.95;1.85;;;;;;;9.96;78.11;100435.63;5087465;28;20028;-84
2022/12/22 06:46:49;;;;;;;0.10;0.10;;;;;;;9.96;78.14;100435.63;5087311;28;20084;-84
2022/12/22 06:49:15;;;;;;;1.27;1.20;;;;;;;9.87;78.16;100439.38;5085342;28;20052;-84
2022/12/22 06:51:41;;;;;;;0.15;0.15;;;;;;;9.82;78.32;100445.66;5081281;28;20032;-85
2022/12/22 06:54:07;;;;;;;0.20;0.20;;;;;;;9.85;77.90;100442.97;5076493;28;20128;-82
2022/12/22 06:56:33;;;;;;;0.20;0.20;;;;;;;9.86;77.99;100447.34;5075218;28;20040;-84
2022/12/22 06:58:59;;;;;;;0.20;0.20;;;;;;;9.86;77.99;100447.34;5079789;28;20044;-84
2022/12/22 07:01:26;;;;;;;0.20;0.20;;;;;;;9.82;78.22;100450.97;5079170;28;20033;-84
2022/12/22 07:03:52;;;;;;;0.30;0.30;;;;;;;9.85;77.95;100453.53;5081307;28;20032;-84
2022/12/22 07:06:18;;;;;;;0.40;0.40;;;;;;;9.87;78.14;100459.69;5077048;28;20143;-84
2022/12/22 07:08:45;;;;;;;0.30;0.30;;;;;;;9.85;78.17;100458.84;5071807;28;20040;-84
2022/12/22 07:11:13;;;;;;;0.85;0.85;;;;;;;9.85;78.42;100465.00;5075439;28;20170;-84
2022/12/22 07:13:39;;;;;;;0.20;0.20;;;;;;;9.88;78.03;100466.69;5080435;28;20513;-84
2022/12/22 07:16:07;;;;;;;2.25;1.55;;;;;;;9.84;78.13;100480.91;5095643;28;20024;-84
2022/12/22 07:18:36;;;;;;;0.43;0.43;;;;;;;9.89;77.88;100476.38;5096107;28;20040;-84
2022/12/22 07:21:04;;;;;;;0.50;0.50;;;;;;;9.80;78.48;100489.84;5096292;28;20040;-84
2022/12/22 07:23:31;;;;;;;0.20;0.20;;;;;;;9.78;78.27;100481.03;5100053;28;20043;-82
2022/12/22 07:25:58;;;;;;;0.13;0.13;;;;;;;9.75;77.98;100489.06;5095237;28;20029;-83
2022/12/22 07:28:24;;;;;;;0.57;0.57;;;;;;;9.76;77.98;100496.97;5103115;28;20037;-81
2022/12/22 07:30:51;;;;;;;0.20;0.20;;;;;;;9.74;77.77;100496.13;5093599;28;20017;-85
2022/12/22 07:33:18;;;;;;;1.00;1.00;;;;;;;9.67;77.21;100498.03;5096955;28;20029;-85
2022/12/22 07:35:44;;;;;;;2.25;0.82;;;;;;;9.62;77.48;100505.22;5082724;28;20392;-86
2022/12/22 07:38:11;;;;;;;0.68;0.68;;;;;;;9.51;77.80;100509.84;5080688;28;20085;-86
2022/12/22 07:40:37;;;;;;;1.65;0.90;;;;;;;9.47;77.73;100513.44;5081864;28;20027;-85
2022/12/22 07:43:03;;;;;;;0.50;0.45;;;;;;;9.46;77.59;100522.28;5088635;28;20039;-85
2022/12/22 07:51:40;;;;;;;0.20;0.20;;;;;;;9.31;77.46;100534.94;5080093;28;20043;-87
2022/12/22 07:54:07;;;;;;;0.28;0.28;;;;;;;9.30;77.21;100527.03;5092878;28;20057;-86
2022/12/22 07:56:34;;;;;;;0.73;0.73;;;;;;;9.27;77.56;100527.97;5090337;28;20031;-86
2022/12/22 07:59:00;;;;;;;0.20;0.20;;;;;;;9.26;77.45;100533.25;5090565;28;20039;-86
2022/12/22 08:01:26;;;;;;;0.20;0.20;;;;;;;9.22;77.60;100530.69;5086946;28;20035;-86
2022/12/22 08:03:52;;;;;;;0.10;0.10;;;;;;;9.21;77.64;100530.72;5087327;28;20028;-86
2022/12/22 08:06:18;;;;;;;0.20;0.20;;;;;;;9.20;77.46;100532.47;5092085;28;20024;-86
2022/12/22 08:08:48;;;;;;;0.20;0.20;;;;;;;9.20;77.40;100542.19;5100059;28;20034;-86
2022/12/22 08:11:14;;;;;;;1.45;0.80;;;;;;;9.17;77.22;100547.53;5070706;28;20404;-86
2022/12/22 08:13:42;;;;;;;0.20;0.20;;;;;;;9.13;77.36;100546.72;5082697;28;20058;-85
2022/12/22 08:16:10;;;;;;;0.43;0.43;;;;;;;9.11;77.50;100547.63;5065897;28;20121;-85
2022/12/22 08:18:37;;;;;;;0.20;0.20;;;;;;;9.07;77.50;100553.00;5054936;28;20454;-86
2022/12/22 08:21:05;;;;;;;0.20;0.20;;;;;;;9.05;77.36;100561.84;5061474;28;20047;-85
2022/12/22 08:23:32;;;;;;;0.30;0.30;;;;;;;9.01;77.35;100579.53;5078113;28;20043;-86
2022/12/22 08:26:09;;;;;;;0.20;0.20;;;;;;;9.00;77.47;100583.06;5066719;28;20028;-84
2022/12/22 08:28:43;;;;;;;0.28;0.28;;;;;;;8.97;76.99;100592.81;5076363;28;20060;-86
2022/12/22 08:31:09;;;;;;;0.10;0.10;;;;;;;8.95;77.09;100598.13;5068528;28;20049;-86
2022/12/22 08:33:36;;;;;;;0.20;0.20;;;;;;;8.92;76.45;100606.09;5072469;28;20040;-86
2022/12/22 08:36:02;;;;;;;0.30;0.30;;;;;;;8.86;76.65;100603.56;5062109;28;20036;-86
2022/12/22 08:38:30;;;;;;;0.20;0.20;;;;;;;8.80;77.11;100606.31;5060112;28;20025;-85
2022/12/22 08:40:56;;;;;;;0.55;0.55;;;;;;;8.78;77.07;100613.41;5066253;28;20459;-85
2022/12/22 08:43:23;;;;;;;0.13;0.13;;;;;;;8.73;77.20;100603.78;5065308;28;20025;-85
2022/12/22 08:45:50;;;;;;;0.40;0.40;;;;;;;8.70;77.08;100606.47;5062379;28;20051;-85
2022/12/22 08:48:16;;;;;;;0.25;0.25;;;;;;;8.66;77.13;100623.28;5062954;28;20040;-84
2022/12/22 08:50:42;;;;;;;0.20;0.20;;;;;;;8.60;76.86;100615.44;5062698;28;20029;-85
2022/12/22 08:53:08;;;;;;;0.15;0.15;;;;;;;8.54;76.35;100616.41;5064046;28;20029;-85
2022/12/22 08:55:34;;;;;;;0.73;0.73;;;;;;;8.49;76.84;100622.66;5066997;28;20032;-85
2022/12/22 08:58:01;;;;;;;0.20;0.20;;;;;;;8.42;76.17;100621.81;5072752;28;20507;-85
2022/12/22 09:00:27;;;;;;;0.10;0.10;;;;;;;8.41;76.69;100625.34;5069754;28;20055;-85
2022/12/22 09:02:53;;;;;;;0.55;0.55;;;;;;;8.41;76.63;100620.06;5076830;28;20047;-85
2022/12/22 09:05:19;;;;;;;0.15;0.15;;;;;;;8.40;76.96;100623.63;5066491;28;20036;-86
2022/12/22 09:07:46;;;;;;;0.20;0.20;;;;;;;8.39;76.52;100627.16;5076158;28;20032;-86
2022/12/22 09:10:13;;;;;;;0.20;0.20;;;;;;;8.39;76.37;100627.16;5074170;28;20021;-85
2022/12/22 09:12:39;;;;;;;0.20;0.20;;;;;;;8.38;77.01;100635.97;5070407;28;20037;-85
2022/12/22 09:15:07;;;;;;;0.40;0.40;;;;;;;8.38;76.56;100635.97;5070819;28;20480;-85
2022/12/22 09:17:35;;;;;;;0.10;0.10;;;;;;;8.41;76.62;100636.81;5076741;28;20020;-85
2022/12/22 09:20:01;;;;;;;0.15;0.15;;;;;;;8.39;76.81;100643.88;5076658;28;20055;-85
2022/12/22 09:22:28;;;;;;;0.20;0.20;;;;;;;8.39;76.38;100654.44;5072215;28;20032;-85
2022/12/22 09:24:54;;;;;;;2.25;1.45;;;;;;;8.38;77.37;100639.47;5071346;28;20091;-85
2022/12/22 09:27:20;;;;;;;0.32;0.32;;;;;;;8.42;77.14;100648.22;5063072;28;20080;-85
2022/12/22 09:29:46;;;;;;;0.20;0.20;;;;;;;8.41;77.68;100644.72;5073979;28;20027;-85
2022/12/22 09:32:12;;;;;;;1.25;1.23;;;;;;;8.45;77.10;100642.03;5056870;28;20048;-85
2022/12/22 09:34:38;;;;;;;0.63;0.63;;;;;;;8.48;77.75;100649.97;5071318;28;20029;-85
2022/12/22 09:37:05;;;;;;;0.65;0.65;;;;;;;8.50;77.49;100645.50;5058473;28;20025;-86
2022/12/22 09:39:31;;;;;;;0.10;0.10;;;;;;;8.56;77.66;100654.22;5058007;28;20025;-85
2022/12/22 09:41:59;;;;;;;0.20;0.20;;;;;;;8.61;77.63;100658.56;5049214;28;20053;-79
2022/12/22 09:47:28;;;;;;;0.73;0.73;;;;;;;8.80;77.27;100667.06;5112060;27;20400;-81
2022/12/22 09:49:56;;;;;;;0.10;0.10;;;;;;;8.82;77.48;100667.94;5091558;28;20095;-80
2022/12/22 09:55:36;;;;;;;0.10;0.10;;;;;;;9.03;77.70;100662.31;5092870;27;1867183;-80
2022/12/22 09:58:02;;;;;;;0.45;0.45;;;;;;;9.09;77.36;100665.75;5125979;28;20039;-81
2022/12/22 10:00:28;;;;;;;0.88;0.88;;;;;;;9.16;77.34;100673.53;5131763;28;20052;-80
2022/12/22 10:03:12;;;;;;;0.17;0.17;;;;;;;9.32;77.32;100678.56;5129422;28;20035;-81
2022/12/22 10:06:08;;;;;;;0.10;0.10;;;;;;;9.45;77.55;100668.66;5126810;27;20028;-80
2022/12/22 10:08:36;;;;;;;0.45;0.45;;;;;;;9.45;77.38;100673.94;5129504;28;20107;-81
2022/12/22 10:11:03;;;;;;;0.17;0.17;;;;;;;9.52;77.20;100676.44;5130956;28;20045;-80
2022/12/22 10:13:29;;;;;;;0.55;0.55;;;;;;;9.58;77.94;100680.72;5141134;28;20511;-80
2022/12/22 10:15:56;;;;;;;0.20;0.20;;;;;;;9.65;78.18;100677.06;5136204;28;20024;-81
2022/12/22 10:18:26;;;;;;;0.30;0.30;;;;;;;9.75;77.46;100671.63;5121575;28;20050;-81
2022/12/22 10:23:47;;;;;;;0.17;0.17;;;;;;;9.89;78.33;100664.28;5092362;27;20384;-81
2022/12/22 10:29:12;;;;;;;0.20;0.20;;;;;;;10.03;77.85;100670.16;5117195;27;1231189;-84
2022/12/22 10:32:09;;;;;;;0.17;0.17;;;;;;;10.16;77.93;100672.56;5121542;28;20032;-87
2022/12/22 10:34:35;;;;;;;0.10;0.10;;;;;;;10.18;77.92;100665.44;5110826;28;20042;-86
2022/12/22 10:37:04;;;;;;;0.35;0.35;;;;;;;10.24;77.52;100665.31;5114932;28;20028;-83
2022/12/22 10:39:33;;;;;;;0.70;0.70;;;;;;;10.27;77.95;100678.50;5114272;28;20023;-86
2022/12/22 10:42:06;;;;;;;2.28;1.65;;;;;;;10.36;77.93;100686.25;5109608;28;20024;-87
2022/12/22 10:44:36;;;;;;;0.63;0.63;;;;;;;10.38;77.64;100677.41;5108200;28;20499;-86
2022/12/22 10:47:20;;;;;;;1.35;1.10;;;;;;;10.48;77.15;100676.28;5112036;28;20031;-82
2022/12/22 10:49:50;;;;;;;0.30;0.30;;;;;;;10.50;77.10;100687.75;5116769;28;20036;-84
2022/12/22 10:52:27;;;;;;;0.20;0.20;;;;;;;10.60;77.43;100689.28;5118321;28;20027;-84
2022/12/22 10:55:14;;;;;;;0.88;0.88;;;;;;;10.70;77.12;100692.59;5115802;28;20031;-84
2022/12/22 10:57:40;;;;;;;0.20;0.20;;;;;;;10.69;77.05;100688.19;5109961;28;20032;-85
2022/12/22 11:03:00;;;;;;;0.20;0.20;;;;;;;10.80;76.75;100695.91;5117465;27;1190819;-81
2022/12/22 11:05:27;;;;;;;0.20;0.20;;;;;;;10.88;76.76;100703.66;5123426;27;20042;-81
2022/12/22 11:07:54;;;;;;;0.10;0.10;;;;;;;10.91;76.22;100709.78;5115403;28;20092;-80
2022/12/22 11:13:38;;;;;;;0.30;0.30;;;;;;;11.06;75.79;100708.53;5100160;27;1219550;-80
2022/12/22 11:16:38;;;;;;;0.10;0.10;;;;;;;11.12;75.97;100696.91;5117542;28;20059;-81
2022/12/22 11:19:31;;;;;;;0.20;0.20;;;;;;;11.12;75.45;100708.38;5109366;28;20040;-81
2022/12/22 11:22:08;;;;;;;0.55;0.55;;;;;;;11.15;74.99;100715.38;5111882;28;20043;-80
2022/12/22 11:24:54;;;;;;;0.17;0.17;;;;;;;11.13;74.57;100720.75;5107198;28;20125;-80
2022/12/22 11:27:51;;;;;;;0.25;0.25;;;;;;;11.15;74.59;100718.03;5101739;28;20122;-80
2022/12/22 11:30:22;;;;;;;0.10;0.10;;;;;;;11.00;73.97;100725.47;5113973;28;20513;-80
2022/12/22 11:38:36;;;;;;;2.00;0.60;;;;;;;10.76;73.16;100721.59;5132857;27;1178998;-80
2022/12/22 11:41:19;;;;;;;0.10;0.10;;;;;;;10.64;73.80;100722.75;5140384;27;20062;-81
2022/12/22 11:43:58;;;;;;;;;;;;;;;10.74;73.75;100719.88;5148836;27;20049;-81
2022/12/22 11:49:25;;;;;;;0.60;0.60;;;;;;;10.41;72.99;100723.25;5105080;27;1177396;-80
2022/12/22 11:54:47;;;;;;;0.10;0.10;;;;;;;10.03;74.10;100723.09;5137534;27;20404;-80
2022/12/22 12:03:25;;;;;;;0.15;0.15;;;;;;;9.58;74.45;100711.59;5054737;28;20391;-81
2022/12/22 12:06:13;;;;;;;0.55;0.55;;;;;;;9.47;74.91;100717.97;5042500;28;20050;-81
2022/12/22 12:08:57;;;;;;;1.08;1.08;;;;;;;9.41;75.63;100712.78;5039671;28;20042;-82
2022/12/22 12:11:34;;;;;;;0.17;0.17;;;;;;;9.35;75.99;100704.97;5043889;28;20072;-80
2022/12/22 12:22:29;;;;;;;0.20;0.20;;;;;;;9.35;76.39;100712.91;5062376;28;20207;-81
2022/12/22 12:25:24;;;;;;;0.82;0.82;;;;;;;9.36;76.31;100706.72;5053992;28;20047;-81
2022/12/22 12:30:35;;;;;;;0.40;0.40;;;;;;;9.25;76.71;100704.25;5069845;28;20943;-79
2022/12/22 12:33:13;;;;;;;1.13;0.85;;;;;;;9.34;76.52;100698.78;5062694;28;20061;-79
2022/12/22 12:38:40;;;;;;;1.37;1.30;;;;;;;9.29;76.52;100695.34;5101420;27;1195379;-80
2022/12/22 12:44:04;;;;;;;0.40;0.40;;;;;;;9.33;76.82;100690.88;5095705;27;1882621;-79
2022/12/22 12:52:16;;;;;;;1.52;1.42;;;;;;;9.46;76.71;100692.41;5059135;28;20406;-79
2022/12/22 12:54:45;;;;;;;0.20;0.20;;;;;;;9.53;76.77;100687.88;5057668;28;20048;-79
2022/12/22 12:57:45;;;;;;;0.30;0.30;;;;;;;9.61;76.24;100680.69;5033216;28;20112;-79
2022/12/22 13:05:54;;;;;;;0.75;0.75;;;;;;;9.72;76.52;100683.13;5101693;27;20415;-79
2022/12/22 13:18:48;;;;;;;1.08;1.08;;;;;;;9.92;75.30;100664.22;5066088;28;20136;-79
2022/12/22 13:21:21;;;;;;;0.75;0.75;;;;;;;9.98;75.40;100663.22;5054791;28;20033;-79
2022/12/22 13:24:01;;;;;;;0.20;0.20;;;;;;;10.04;75.61;100658.69;5053984;28;20067;-79
2022/12/22 13:26:34;;;;;;;1.33;0.82;;;;;;;10.04;75.13;100658.69;5052303;28;20610;-79
2022/12/22 13:31:47;;;;;;;0.20;0.20;;;;;;;10.12;75.11;100650.56;5062705;28;20417;-79
2022/12/22 13:37:17;;;;;;;1.20;1.20;;;;;;;10.24;74.50;100644.13;5087231;27;1510281;-81
2022/12/22 13:45:28;;;;;;;0.93;0.63;;;;;;;10.45;74.12;100626.06;5112304;27;1188805;-79
2022/12/22 13:47:55;;;;;;;0.28;0.28;;;;;;;10.47;74.18;100625.09;5132936;27;20111;-79
2022/12/22 13:50:25;;;;;;;0.20;0.20;;;;;;;10.58;74.72;100627.53;5131730;27;20484;-79
2022/12/22 13:52:53;;;;;;;0.38;0.38;;;;;;;10.61;74.18;100615.97;5131556;27;20027;-79
2022/12/22 13:55:27;;;;;;;2.05;1.95;;;;;;;10.65;73.79;100607.94;5134515;28;20024;-79
2022/12/22 13:57:55;;;;;;;0.20;0.20;;;;;;;10.70;73.64;100598.97;5123632;28;20034;-79
2022/12/22 14:00:24;;;;;;;0.30;0.30;;;;;;;10.73;73.66;100601.53;5133583;27;20030;-79
2022/12/22 14:02:51;;;;;;;0.43;0.43;;;;;;;10.72;73.42;100599.84;5132241;27;20035;-79
2022/12/22 14:05:18;;;;;;;0.80;0.80;;;;;;;10.71;73.46;100606.03;5139283;27;20035;-79
2022/12/22 14:08:05;;;;;;;0.22;0.22;;;;;;;10.79;73.40;100609.34;5138701;27;20094;-79
2022/12/22 14:10:36;;;;;;;0.25;0.25;;;;;;;10.72;73.16;100602.47;5129439;28;20034;-78
2022/12/22 14:13:16;;;;;;;0.30;0.30;;;;;;;10.76;73.59;100597.03;5132508;27;20068;-83
2022/12/22 14:15:45;;;;;;;0.73;0.73;;;;;;;10.71;73.39;100590.13;5132070;27;20131;-79
2022/12/22 14:18:15;;;;;;;0.10;0.10;;;;;;;10.74;73.61;100584.75;5138301;27;20440;-79
2022/12/22 14:20:45;;;;;;;2.20;2.10;;;;;;;10.75;73.83;100581.19;5136516;27;20023;-79
2022/12/22 14:23:32;;;;;;;0.75;0.75;;;;;;;10.74;73.47;100579.44;5135451;27;20047;-79
2022/12/22 14:26:00;;;;;;;1.58;1.55;;;;;;;10.79;74.21;100577.53;5135073;27;20027;-79
2022/12/22 14:31:07;;;;;;;0.20;0.20;;;;;;;10.79;73.66;100570.47;5111705;27;20380;-80
2022/12/22 14:33:34;;;;;;;0.20;0.20;;;;;;;10.84;73.92;100570.34;5090773;28;20051;-80
2022/12/22 14:38:53;;;;;;;0.47;0.47;;;;;;;10.84;73.50;100562.38;5062966;28;20416;-80
2022/12/22 14:41:42;;;;;;;0.30;0.30;;;;;;;10.90;73.94;100569.31;5048098;28;20052;-80
2022/12/22 14:44:30;;;;;;;0.20;0.20;;;;;;;10.92;74.30;100568.38;5046374;28;20059;-80
2022/12/22 14:50:03;;;;;;;0.65;0.65;;;;;;;10.90;74.50;100554.28;5082410;27;20399;-81
2022/12/22 14:52:38;;;;;;;0.50;0.50;;;;;;;10.95;74.43;100549.75;5068229;28;20114;-80
2022/12/22 14:55:19;;;;;;;0.10;0.10;;;;;;;10.99;73.71;100548.75;5054688;28;20523;-79
2022/12/22 14:57:50;;;;;;;0.63;0.63;;;;;;;10.96;74.00;100537.34;5070697;28;20055;-79
2022/12/22 15:03:26;;;;;;;0.90;0.90;;;;;;;10.88;73.85;100553.47;5066073;28;20391;-79
2022/12/22 15:05:52;;;;;;;0.10;0.10;;;;;;;10.80;73.75;100547.50;5045779;28;20041;-79
2022/12/22 15:08:40;;;;;;;0.20;0.20;;;;;;;10.84;74.19;100538.53;5047429;28;20052;-78
2022/12/22 15:11:11;;;;;;;1.23;1.23;;;;;;;10.76;73.83;100535.22;5035907;28;20122;-78
2022/12/22 15:13:38;;;;;;;0.63;0.63;;;;;;;10.72;74.08;100533.59;5041596;28;20529;-77
2022/12/22 15:16:04;;;;;;;1.25;1.10;;;;;;;10.72;74.29;100533.59;5043399;28;20046;-77
2022/12/22 15:18:32;;;;;;;2.95;1.80;;;;;;;10.70;74.18;100535.41;5038594;28;20034;-77
2022/12/22 15:20:58;;;;;;;0.65;0.65;;;;;;;10.66;74.69;100527.50;5046582;28;20072;-77
2022/12/22 15:23:27;;;;;;;0.20;0.20;;;;;;;10.67;74.47;100525.75;5031441;28;20036;-77
2022/12/22 15:25:54;;;;;;;0.90;0.90;;;;;;;10.65;74.73;100525.78;5038291;28;20108;-77
2022/12/22 15:28:20;;;;;;;0.10;0.10;;;;;;;10.61;74.79;100515.31;5043977;28;20097;-78
2022/12/22 15:30:46;;;;;;;0.65;0.65;;;;;;;10.59;74.90;100502.09;5047352;28;20564;-78
2022/12/22 15:33:15;;;;;;;0.10;0.10;;;;;;;10.59;74.85;100502.09;5039334;28;20045;-78
2022/12/22 15:35:42;;;;;;;0.30;0.30;;;;;;;10.57;75.41;100503.91;5043647;28;20041;-78
2022/12/22 15:38:18;;;;;;;0.20;0.20;;;;;;;10.59;75.11;100502.09;5039025;28;20021;-78
2022/12/22 15:40:45;;;;;;;0.40;0.40;;;;;;;10.56;75.01;100502.16;5038491;28;20017;-78
2022/12/22 15:43:11;;;;;;;0.30;0.30;;;;;;;10.51;75.62;100504.06;5034395;28;20034;-80
2022/12/22 15:45:38;;;;;;;0.10;0.10;;;;;;;10.47;75.60;100492.66;5048007;28;20036;-78
2022/12/22 15:48:09;;;;;;;4.90;1.98;;;;;;;10.48;75.43;100489.13;5041944;28;20025;-78
2022/12/22 15:50:40;;;;;;;0.30;0.30;;;;;;;10.47;75.64;100487.38;5045059;28;20040;-80
2022/12/22 15:53:08;;;;;;;0.90;0.90;;;;;;;10.46;75.43;100476.81;5047392;28;20491;-80
2022/12/22 15:55:41;;;;;;;0.40;0.40;;;;;;;10.48;75.40;100480.28;5045584;28;20043;-80
2022/12/22 15:58:13;;;;;;;1.10;1.02;;;;;;;10.48;75.81;100485.59;5037646;28;20107;-80
2022/12/22 16:00:39;;;;;;;;;;;;;;;10.56;75.73;100480.97;5035224;28;20558;-80
2022/12/22 16:03:05;;;;;;;0.10;0.10;;;;;;;10.48;75.83;100473.22;5039256;28;19949;-80
2022/12/22 16:05:32;;;;;;;1.20;0.82;;;;;;;10.47;75.82;100467.97;5046445;28;20021;-80
2022/12/22 16:08:00;;;;;;;0.55;0.55;;;;;;;10.43;75.97;100461.00;5031081;28;20033;-81
2022/12/22 16:10:28;;;;;;;1.88;1.27;;;;;;;10.45;76.08;100465.34;5043486;28;20032;-81
2022/12/22 16:12:59;;;;;;;0.45;0.45;;;;;;;10.41;76.25;100458.41;5026886;28;20034;-81
2022/12/22 16:15:27;;;;;;;1.15;1.10;;;;;;;10.44;76.24;100454.78;5031801;28;20038;-80
2022/12/22 16:17:54;;;;;;;5.00;1.13;;;;;;;10.46;76.10;100447.69;5026678;28;20060;-80
2022/12/22 16:20:20;;;;;;;0.95;0.95;;;;;;;10.44;76.12;100444.19;5023233;28;20090;-81
2022/12/22 16:22:50;;;;;;;1.10;1.10;;;;;;;10.50;76.61;100441.41;5025502;28;20455;-79
2022/12/22 16:25:20;;;;;;;0.55;0.55;;;;;;;10.51;76.11;100432.53;5023843;28;20040;-78
2022/12/22 16:27:48;;;;;;;0.32;0.32;;;;;;;10.52;76.17;100429.00;5033853;28;20553;-79
2022/12/22 16:30:32;;;;;;;0.20;0.20;;;;;;;10.59;76.30;100432.34;5020059;28;20033;-81
2022/12/22 16:32:59;;;;;;;1.05;0.68;;;;;;;10.56;76.71;100422.69;5025340;28;20111;-81
2022/12/22 16:35:28;;;;;;;2.00;1.63;;;;;;;10.57;76.58;100424.44;5031694;28;20068;-80
2022/12/22 16:37:57;;;;;;;0.20;0.20;;;;;;;10.56;76.66;100422.69;5033096;28;20033;-79
2022/12/22 16:40:23;;;;;;;0.10;0.10;;;;;;;10.58;76.70;100420.00;5023830;28;20025;-79
2022/12/22 16:43:11;;;;;;;0.98;0.98;;;;;;;10.60;76.93;100423.47;5023197;28;20080;-77
2022/12/22 16:45:42;;;;;;;2.45;2.25;;;;;;;10.59;77.23;100417.31;5019298;28;20037;-77
2022/12/22 16:48:13;;;;;;;6.47;1.02;;;;;;;10.67;76.89;100410.03;5026871;28;20511;-79
2022/12/22 16:50:45;;;;;;;1.63;1.55;;;;;;;10.68;76.57;100398.50;5024711;28;20447;-80
2022/12/22 16:53:13;;;;;;;0.68;0.68;;;;;;;10.68;76.64;100395.88;5024600;28;20449;-80
2022/12/22 16:55:40;;;;;;;0.20;0.20;;;;;;;10.68;76.82;100398.50;5024024;28;20099;-80
2022/12/22 16:58:08;;;;;;;0.82;0.82;;;;;;;10.68;77.03;100406.47;5026525;28;20021;-79
2022/12/22 17:00:35;;;;;;;2.45;0.57;;;;;;;10.72;76.62;100396.66;5025672;28;20037;-79